AirNav   Pilot Hours Calculator
 
 1386 users online  

7PN3 Suburban Community Hospital Heliport
Norristown, Pennsylvania, USA

GOING TO NORRISTOWN?


FAA INFORMATION EFFECTIVE 05 DECEMBER 2019

Location

FAA Identifier: 7PN3
Lat/Long: 40-08-24.2500N 075-18-53.5200W
40-08.404167N 075-18.892000W
40.1400694,-75.3148667
(estimated)
Elevation: 316 ft. / 96 m (estimated)
Variation: 11W (1985)
From city: 1 mile NE of NORRISTOWN, PA
Time zone: UTC -5 (UTC -4 during Daylight Saving Time)
Zip code: 19403

Heliport Operations

Heliport use: Private use, MEDICAL USE.
Activation date: 02/1978
Control tower: no
ARTCC: NEW YORK CENTER
FSS: WILLIAMSPORT FLIGHT SERVICE STATION
Attendance: CONTINUOUS
Wind indicator: yes
Segmented circle: no
Lights: SS-SR

Heliport Communications

UNICOM: 122.8
WX AWOS-3 at LOM (2.3 nm E): 118.925 (215-646-1068)
WX ASOS at PTW (13 nm NW): 119.425 (610-495-0823)
WX ASOS at PNE (14 nm E): PHONE 215-677-0146
WX ASOS at DYL (15 nm NE): 118.875 (215-345-0392)
WX AWOS-3 at CKZ (15 nm N): 126.325 (215-257-7291)
WX AWOS-3T at OQN (15 nm SW): 121.4 ((610) 692-6190)
WX ASOS at PHL (16 nm S): PHONE 215-492-9617
WX AWOS-3 at UKT (18 nm N): 119.475 (215-538-7610)

Nearby radio navigation aids

VOR radial/distance  VOR name  Freq  Var
PTWr123/12.3POTTSTOWN VORTAC116.5009W
ARDr260/19.9YARDLEY VOR/DME108.2010W
MXEr060/21.1MODENA VORTAC113.2009W
OODr009/30.2WOODSTOWN VORTAC112.8010W
DQOr036/30.8DUPONT VORTAC114.0010W
ETXr156/31.4EAST TEXAS VOR/DME110.2009W
GXUr295/33.9MC GUIRE VORTAC110.6012W
FJCr180/35.8ALLENTOWN VORTAC117.5010W
SBJr235/37.3SOLBERG VOR/DME112.9010W
RBVr274/37.8ROBBINSVILLE VORTAC113.8010W
VCNr346/39.5CEDAR LAKE VOR/DME115.2010W

 
NDB name  Hdg/Dist  Freq  Var  ID
AMBLER314/1.627512WING .. -. --.

Heliport Services

Runway Information

Helipad H1

Dimensions: 60 x 60 ft. / 18 x 18 m
Surface: asphalt/concrete, in good condition
60 FT DIAMETER CONC/PAVED TLOF.
Runway edge lights: PERI
Latitude: 40-08.404167N
Longitude: 075-18.892000W
Elevation: 316.0 ft.
Traffic pattern: leftleft
Markings: none, in fair condition

Heliport Ownership and Management from official FAA records

Ownership: Privately-owned
Owner: PRIME HEALTHCARE SERVICES
2701 DEKALB PIKE
NORRISTOWN, PA 19401
Phone 610-278-2000
Manager: JAMES ALLEN
2701 DEKALB PIKE
NORRISTOWN, PA 19401
Phone 610-278-2094

Additional Remarks

FOR CD CTC PHILADELPHIA APCH AT 800-354-9884.
APP HDG 190; DEP HDG 010.

Instrument Procedures

There are no published instrument procedures at 7PN3.

Some nearby airports with instrument procedures:

KLOM - Wings Field Airport (2 nm E)
N10 - Perkiomen Valley Airport (7 nm NW)
KPTW - Heritage Field Airport (13 nm NW)
KPNE - Northeast Philadelphia Airport (14 nm E)
KDYL - Doylestown Airport (15 nm NE)
KCKZ - Pennridge Airport (15 nm N)
KOQN - Brandywine Regional Airport (15 nm SW)
KPHL - Philadelphia International Airport (16 nm S)
N47 - Pottstown Municipal Airport (18 nm NW)
KUKT - Quakertown Airport (18 nm N)
 
Loc | Ops | Rwys | IFR | FBO | Links
Com | Nav | Svcs | Stats | Notes
Area around 7PN3 (Suburban Community Hospital Heliport)
 
Road maps at: MapQuest Bing Google
 
Aerial photo
No photo
 
Sectional chart

 
Airport distance calculator
Flying to Suburban Community Hospital Heliport? Find the distance to fly.

From to 7PN3

Sunrise and sunset
Times for 09-Dec-2019
 Local
(UTC-5)
 Zulu
(UTC)
Morning civil twilight06:4211:42
Sunrise07:1312:13
Sunset16:3421:34
Evening civil twilight17:0522:05

Current date and time
Zulu (UTC)  09-Dec-2019 18:05:40
Local (UTC-5)  09-Dec-2019 13:05:40
 
METAR
KLOM 
2nm E 
091755Z AUTO 17003KT 2SM RA BR OVC003 08/08 A2998 RMK AO2 P0008 T00790079 10079 20053 60011
KPTW 
12nm NW 
091754Z AUTO 00000KT 2 1/2SM RA BR BKN003 OVC010 06/06 A2998 RMK AO2 SLP153 P0010 60017 T00560056 10056 20033 56022
KPNE 
14nm E 
091754Z 21007KT 2SM BR OVC003 10/08 A3000 RMK AO2 RAB27E49 SLP160 P0000 60011 T01000083 10100 20061 56029
KDYL 
15nm NE 
091754Z AUTO 19004KT 5SM -RA BR BKN002 OVC045 08/07 A2997 RMK AO2 SLP152 6//// T00780067 10078 20039 58029 PNO $
KCKZ 
15nm N 
091755Z AUTO 00000KT 1SM RA OVC003 06/06 A2998 RMK AO2 P0006
KOQN 
15nm SW 
091755Z AUTO 20005KT 5SM RA OVC005 08/07 A2997 RMK AO2 P0006
KPHL 
17nm S 
091754Z 22011KT 6SM -RA BR OVC005 09/08 A2999 RMK AO2 SLP156 P0001 60005 T00890078 10089 20056 58027
KUKT 
18nm N 
091755Z AUTO 17004KT 1 3/4SM BR OVC003 07/07 A2996 RMK A01 P0010
TAF
KPNE 
14nm E 
091737Z 0918/1018 20007KT 2SM RA BR OVC003 WS020/18035KT FM092000 19008KT 2SM -RA BR OVC003 WS020/18035KT FM100300 21011G22KT 3SM -SHRA BR OVC008 FM101200 22011KT P6SM OVC015 FM101700 24010G19KT 6SM -SHRA OVC010
KPHL 
17nm S 
091737Z 0918/1024 22008KT 3SM RA BR OVC003 WS020/18035KT FM092000 19009KT 2SM -RA BR OVC003 WS020/21040KT FM100400 22010G18KT 3SM -SHRA OVC008 FM100800 22012G22KT P6SM OVC015 FM101600 23010G19KT 6SM -SHRA OVC010 FM102100 28009KT P6SM OVC040
NOTAMs
Click for the latest NOTAMs
NOTAMs are issued by the DoD/FAA and will open in a separate window not controlled by AirNav.

 

 
 

Would you like to see your business listed on this page?

 If your business provides an interesting product or service to pilots, flight crews, aircraft, or users of the Suburban Community Hospital Heliport, you should consider listing it here.  To start the listing process, click on the button below
 
Add a business
 

Other Pages about Suburban Community Hospital Heliport

Update a link
 
Copyright © AirNav, LLC. All rights reserved. Privacy Policy  Contact